Terminal Aerodrome Forecast
Issued by NWS

Home | Current Version | Previous Version | Graphics & Text | Print | Product List | Glossary On
Versions: 1 2 3 4 5 6 7 8 9 10 11 12 13 14
835
FTUS43 KMPX 231728
TAFAXN
TAF
KAXN 231728Z 2318/2418 23007KT P6SM SKC
     FM232100 24006KT P6SM SCT130
     FM240200 03005KT P6SM OVC060
     FM241200 03014G22KT P6SM OVC050=

USA.gov is the U.S. government's official web portal to all federal, state and local government web resources and services.